createdAt,value
2019-03-25T00:02:20.769Z,75.38
2019-03-25T00:04:49.352Z,75.29
2019-03-25T00:07:17.948Z,75.02
2019-03-25T00:09:46.543Z,74.93
2019-03-25T00:12:15.117Z,74.64
2019-03-25T00:14:43.791Z,74.52
2019-03-25T00:17:12.375Z,74.33
2019-03-25T00:19:41.217Z,74.17
2019-03-25T00:22:10.050Z,74.01
2019-03-25T00:24:39.300Z,74.04
2019-03-25T00:27:08.234Z,73.86
2019-03-25T00:29:36.836Z,73.80
2019-03-25T00:32:05.444Z,73.68
2019-03-25T00:34:34.118Z,73.67
2019-03-25T00:37:02.698Z,73.59
2019-03-25T00:39:31.466Z,73.35
2019-03-25T00:42:00.135Z,73.11
2019-03-25T00:44:28.712Z,72.65
2019-03-25T00:46:57.298Z,72.21
2019-03-25T00:49:25.867Z,72.14
2019-03-25T00:51:54.516Z,71.96
2019-03-25T00:54:23.085Z,71.97
2019-03-25T00:56:51.725Z,71.67
2019-03-25T00:59:20.475Z,71.64
2019-03-25T01:01:49.166Z,71.25
2019-03-25T01:04:17.753Z,70.95
2019-03-25T01:06:46.336Z,70.58
2019-03-25T01:09:14.931Z,70.47
2019-03-25T01:14:11.325Z,69.68
2019-03-25T01:16:39.900Z,69.85
2019-03-25T01:19:08.477Z,69.37
2019-03-25T01:21:37.084Z,68.62
2019-03-25T01:24:05.721Z,68.48
2019-03-25T01:26:34.349Z,67.99
2019-03-25T01:29:02.937Z,68.07
2019-03-25T01:31:31.582Z,68.09
2019-03-25T01:34:00.174Z,67.95
2019-03-25T01:36:28.826Z,68.04
2019-03-25T01:38:57.398Z,68.09
2019-03-25T01:41:25.978Z,68.15
2019-03-25T01:43:54.549Z,68.29
2019-03-25T01:46:23.172Z,68.40
2019-03-25T01:48:51.853Z,68.62
2019-03-25T01:51:20.432Z,68.98
2019-03-25T01:53:49.012Z,69.42
2019-03-25T01:56:17.591Z,69.66
2019-03-25T01:58:46.212Z,69.89
2019-03-25T02:01:15.018Z,70.06
2019-03-25T02:03:43.618Z,70.47
2019-03-25T02:06:12.298Z,70.62
2019-03-25T02:08:41.086Z,70.90
2019-03-25T02:11:09.690Z,70.94
2019-03-25T02:13:38.344Z,71.25
2019-03-25T02:16:06.919Z,71.20
2019-03-25T02:18:35.555Z,71.30
2019-03-25T02:21:05.603Z,71.56
2019-03-25T02:23:34.175Z,71.56
2019-03-25T02:26:03.075Z,72.08
2019-03-25T02:28:32.141Z,72.30
2019-03-25T02:31:00.768Z,72.61
2019-03-25T02:33:29.849Z,73.10
2019-03-25T02:35:58.682Z,73.29
2019-03-25T02:38:27.251Z,73.41
2019-03-25T02:40:55.873Z,73.58
2019-03-25T02:43:24.805Z,73.67
2019-03-25T02:45:53.547Z,73.75
2019-03-25T02:48:22.210Z,74.08
2019-03-25T02:50:50.777Z,74.29
2019-03-25T02:53:19.346Z,74.54
2019-03-25T02:55:48.214Z,74.50
2019-03-25T02:58:16.819Z,74.72
2019-03-25T03:00:45.406Z,75.23
2019-03-25T03:03:13.972Z,75.40
2019-03-25T03:05:42.566Z,75.37
2019-03-25T03:08:11.670Z,75.52
2019-03-25T03:10:40.284Z,75.78
2019-03-25T03:13:08.866Z,75.79
2019-03-25T03:15:37.460Z,75.88
2019-03-25T03:18:06.035Z,76.25
2019-03-25T03:20:34.619Z,76.16
2019-03-25T03:23:03.221Z,76.34
2019-03-25T03:25:31.831Z,76.39
2019-03-25T03:28:00.394Z,76.62
2019-03-25T03:30:29.073Z,76.60
2019-03-25T03:32:57.728Z,76.76
2019-03-25T03:35:26.521Z,77.29
2019-03-25T03:37:55.094Z,78.16
2019-03-25T03:40:23.729Z,79.04
2019-03-25T03:42:52.714Z,80.22
2019-03-25T03:45:21.496Z,80.80
2019-03-25T03:47:50.090Z,82.28
2019-03-25T03:50:26.289Z,83.41
2019-03-25T03:52:55.842Z,84.59
2019-03-25T03:55:24.721Z,85.09
2019-03-25T03:57:54.830Z,85.47
2019-03-25T04:00:31.496Z,85.66
2019-03-25T04:03:00.629Z,85.99
2019-03-25T04:05:29.205Z,86.22
2019-03-25T04:07:57.779Z,86.60
2019-03-25T04:10:26.361Z,87.41
2019-03-25T04:12:54.990Z,87.20
2019-03-25T04:15:28.736Z,87.26
2019-03-25T04:17:57.719Z,87.72
2019-03-25T04:20:26.325Z,87.55
2019-03-25T04:22:54.902Z,87.71
2019-03-25T04:25:24.519Z,87.36
2019-03-25T04:27:53.107Z,87.61
2019-03-25T04:30:21.705Z,88.10
2019-03-25T04:32:50.313Z,87.69
2019-03-25T04:35:18.891Z,87.64
2019-03-25T04:37:47.466Z,88.18
2019-03-25T04:40:16.233Z,87.95
2019-03-25T04:42:44.794Z,88.51
2019-03-25T04:45:13.606Z,88.77
2019-03-25T04:47:42.177Z,88.78
2019-03-25T04:50:10.751Z,88.70
2019-03-25T04:52:39.503Z,88.95
2019-03-25T04:55:08.071Z,89.12
2019-03-25T04:57:36.660Z,89.17
2019-03-25T05:00:06.536Z,89.89
2019-03-25T05:02:35.288Z,89.80
2019-03-25T05:05:03.981Z,89.68
2019-03-25T05:07:32.568Z,89.91
2019-03-25T05:10:01.148Z,89.98
2019-03-25T05:12:29.741Z,90.57
2019-03-25T05:14:58.348Z,90.77
2019-03-25T05:17:26.971Z,90.39
2019-03-25T05:19:55.660Z,90.64
2019-03-25T05:22:24.269Z,90.64
2019-03-25T05:24:52.846Z,90.04
2019-03-25T05:27:21.524Z,89.84
2019-03-25T05:29:50.995Z,89.75
2019-03-25T05:32:19.561Z,89.91
2019-03-25T05:34:48.137Z,90.11
2019-03-25T05:37:16.725Z,90.01
2019-03-25T05:39:45.334Z,90.04
2019-03-25T05:42:13.954Z,90.14
2019-03-25T05:44:42.533Z,90.20
2019-03-25T05:47:11.140Z,90.44
2019-03-25T05:49:39.715Z,90.29
2019-03-25T05:52:08.650Z,90.17
2019-03-25T05:54:37.230Z,89.90
2019-03-25T05:57:05.806Z,89.50
2019-03-25T05:59:34.380Z,89.50
2019-03-25T06:02:03.041Z,89.85
2019-03-25T06:04:31.611Z,89.92
2019-03-25T06:07:00.187Z,90.13
2019-03-25T06:09:28.755Z,90.13
2019-03-25T06:11:57.328Z,90.30
2019-03-25T06:14:25.904Z,90.62
2019-03-25T06:16:54.425Z,90.69
2019-03-25T06:19:23.005Z,90.27
2019-03-25T06:21:51.652Z,89.95
2019-03-25T06:24:20.282Z,89.39
2019-03-25T06:26:48.855Z,89.07
2019-03-25T06:29:17.430Z,88.87
2019-03-25T06:31:46.013Z,88.81
2019-03-25T06:34:14.592Z,88.93
2019-03-25T06:36:43.324Z,88.31
2019-03-25T06:39:11.898Z,87.88
2019-03-25T06:41:40.537Z,87.68
2019-03-25T06:44:09.120Z,87.95
2019-03-25T06:46:37.993Z,87.68
2019-03-25T06:49:06.760Z,87.42
2019-03-25T06:51:35.278Z,87.16
2019-03-25T06:54:03.856Z,87.11
2019-03-25T06:56:32.353Z,86.83
2019-03-25T06:59:00.927Z,87.10
2019-03-25T07:01:29.591Z,86.86
2019-03-25T07:03:58.168Z,86.86
2019-03-25T07:06:26.746Z,86.82
2019-03-25T07:08:55.325Z,86.73
2019-03-25T07:11:24.970Z,86.02
2019-03-25T07:13:53.750Z,85.09
2019-03-25T07:16:22.331Z,84.10
2019-03-25T07:18:50.831Z,84.11
2019-03-25T07:21:20.627Z,82.46
2019-03-25T07:23:49.330Z,81.56
2019-03-25T07:26:17.977Z,80.30
2019-03-25T07:28:46.541Z,79.96
2019-03-25T07:31:15.267Z,79.38
2019-03-25T07:33:43.855Z,78.86
2019-03-25T07:36:13.005Z,78.62
2019-03-25T07:38:41.531Z,78.67
2019-03-25T07:41:10.103Z,77.62
2019-03-25T07:43:38.707Z,77.15
2019-03-25T07:46:07.295Z,76.57
2019-03-25T07:48:36.019Z,76.84
2019-03-25T07:51:04.598Z,75.91
2019-03-25T07:53:33.191Z,75.89
2019-03-25T07:56:02.229Z,75.78
2019-03-25T07:58:30.795Z,75.92
2019-03-25T08:00:59.362Z,76.06
2019-03-25T08:03:28.135Z,74.96
2019-03-25T08:05:56.646Z,77.09
2019-03-25T08:08:25.205Z,78.27
2019-03-25T08:10:53.798Z,79.34
2019-03-25T08:13:22.524Z,79.46
2019-03-25T08:15:51.136Z,79.85
2019-03-25T08:18:19.698Z,79.41
2019-03-25T08:20:48.326Z,78.23
2019-03-25T08:23:16.924Z,79.05
2019-03-25T08:25:45.498Z,80.24
2019-03-25T08:28:14.119Z,80.62
2019-03-25T08:30:42.687Z,81.92
2019-03-25T08:33:11.255Z,82.94
2019-03-25T08:35:40.201Z,82.73
2019-03-25T08:38:08.789Z,83.07
2019-03-25T08:40:37.383Z,82.48
2019-03-25T08:43:05.974Z,81.80
2019-03-25T08:45:34.578Z,81.18
2019-03-25T08:48:03.417Z,81.37
2019-03-25T08:50:31.993Z,79.25
2019-03-25T08:53:00.563Z,77.51
2019-03-25T08:55:29.128Z,75.76
2019-03-25T08:57:57.797Z,73.69
2019-03-25T09:00:26.370Z,72.82
2019-03-25T09:02:54.952Z,71.29
2019-03-25T09:05:23.528Z,70.34
2019-03-25T09:07:52.507Z,70.00
2019-03-25T09:10:21.410Z,68.88
2019-03-25T09:12:49.987Z,68.78
2019-03-25T09:15:18.780Z,69.23
2019-03-25T09:17:47.372Z,69.60
2019-03-25T09:20:16.086Z,68.44
2019-03-25T09:22:44.774Z,67.92
2019-03-25T09:25:13.847Z,67.95
2019-03-25T09:27:42.590Z,67.80
2019-03-25T09:30:12.138Z,68.43
2019-03-25T09:32:40.714Z,69.77
2019-03-25T09:35:10.092Z,71.76
2019-03-25T09:37:39.091Z,73.07
2019-03-25T09:40:10.764Z,73.76
2019-03-25T09:42:39.345Z,74.21
2019-03-25T09:45:09.212Z,72.52
2019-03-25T09:47:38.154Z,71.65
2019-03-25T09:50:08.911Z,71.94
2019-03-25T09:52:38.727Z,70.55
2019-03-25T09:55:08.923Z,71.32
2019-03-25T09:57:37.497Z,71.41
2019-03-25T10:00:11.580Z,72.20
2019-03-25T10:02:40.156Z,71.00
2019-03-25T10:05:09.312Z,69.93
2019-03-25T10:07:37.975Z,68.63
2019-03-25T10:10:08.649Z,67.10
2019-03-25T10:12:37.555Z,65.85
2019-03-25T10:15:08.495Z,67.75
2019-03-25T10:17:37.062Z,70.08
2019-03-25T10:20:08.493Z,71.14
2019-03-25T10:22:37.076Z,72.52
2019-03-25T10:25:07.854Z,75.10
2019-03-25T10:28:30.791Z,75.11
2019-03-25T10:30:59.369Z,75.08
2019-03-25T10:33:27.996Z,73.65
2019-03-25T10:35:57.034Z,72.69
2019-03-25T10:38:25.609Z,71.86
2019-03-25T10:40:54.990Z,69.58
2019-03-25T10:43:25.477Z,67.57
2019-03-25T10:45:54.713Z,66.38
2019-03-25T10:48:23.535Z,66.66
2019-03-25T10:50:52.223Z,64.31
2019-03-25T10:53:26.804Z,62.88
2019-03-25T10:55:55.717Z,61.90
2019-03-25T10:58:25.679Z,60.05
2019-03-25T11:00:54.305Z,59.01
2019-03-25T11:03:22.894Z,60.52
2019-03-25T11:05:51.477Z,63.86
2019-03-25T11:08:20.069Z,66.50
2019-03-25T11:10:48.679Z,68.25
2019-03-25T11:13:17.256Z,70.93
2019-03-25T11:15:45.843Z,71.41
2019-03-25T11:18:14.468Z,72.21
2019-03-25T11:20:43.064Z,72.09
2019-03-25T11:23:11.760Z,71.41
2019-03-25T11:25:40.414Z,70.44
2019-03-25T11:28:09.128Z,67.39
2019-03-25T11:30:49.708Z,65.32
2019-03-25T11:33:18.325Z,65.35
2019-03-25T11:35:47.142Z,65.39
2019-03-25T11:38:15.745Z,65.76
2019-03-25T11:40:44.439Z,65.51
2019-03-25T11:43:13.377Z,66.25
2019-03-25T11:45:41.969Z,65.93
2019-03-25T11:48:11.212Z,64.97
2019-03-25T11:50:40.202Z,65.11
2019-03-25T11:53:11.382Z,62.78
2019-03-25T11:55:40.095Z,60.03
2019-03-25T11:58:09.235Z,59.11
2019-03-25T12:00:37.818Z,59.31
2019-03-25T12:03:06.454Z,58.65
2019-03-25T12:05:35.080Z,56.65
2019-03-25T12:08:03.761Z,57.07
2019-03-25T12:10:32.344Z,58.65
2019-03-25T12:13:00.939Z,59.85
2019-03-25T12:15:29.517Z,61.05
2019-03-25T12:17:58.124Z,60.98
2019-03-25T12:20:26.742Z,60.43
2019-03-25T12:22:55.318Z,59.85
2019-03-25T12:25:24.390Z,59.62
2019-03-25T12:27:53.640Z,58.77
2019-03-25T12:30:22.361Z,58.17
2019-03-25T12:32:51.841Z,56.90
2019-03-25T12:35:20.534Z,56.37
2019-03-25T12:37:49.714Z,55.76
2019-03-25T12:40:18.397Z,55.53
2019-03-25T12:42:47.271Z,55.21
2019-03-25T12:45:16.020Z,54.84
2019-03-25T12:47:44.665Z,54.82
2019-03-25T12:50:13.513Z,55.51
2019-03-25T12:52:42.161Z,57.27
2019-03-25T12:55:12.264Z,59.85
2019-03-25T12:57:40.839Z,62.54
2019-03-25T13:00:09.888Z,66.11
2019-03-25T13:02:38.458Z,67.00
2019-03-25T13:05:07.663Z,68.57
2019-03-25T13:07:36.230Z,68.46
2019-03-25T13:10:06.406Z,68.52
2019-03-25T13:12:34.985Z,69.45
2019-03-25T13:15:04.299Z,70.82
2019-03-25T13:17:32.874Z,71.78
2019-03-25T13:20:01.453Z,74.40
2019-03-25T13:22:30.220Z,75.71
2019-03-25T13:24:58.819Z,75.52
2019-03-25T13:27:27.383Z,76.21
2019-03-25T13:29:55.948Z,76.94
2019-03-25T13:32:24.717Z,76.97
2019-03-25T13:34:53.335Z,76.62
2019-03-25T13:37:21.936Z,76.21
2019-03-25T13:39:50.506Z,76.18
2019-03-25T13:42:19.084Z,75.70
2019-03-25T13:44:47.684Z,75.52
2019-03-25T13:47:16.265Z,76.26
2019-03-25T13:49:44.864Z,76.76
2019-03-25T13:52:13.496Z,76.76
2019-03-25T13:54:42.087Z,77.15
2019-03-25T13:57:10.690Z,75.98
2019-03-25T13:59:39.309Z,75.62
2019-03-25T14:02:07.890Z,75.26
2019-03-25T14:04:36.466Z,74.69
2019-03-25T14:07:05.423Z,72.72
2019-03-25T14:09:34.010Z,72.27
2019-03-25T14:12:03.063Z,70.05
2019-03-25T14:14:31.649Z,69.44
2019-03-25T14:17:00.217Z,68.52
2019-03-25T14:19:29.447Z,68.24
2019-03-25T14:21:58.085Z,68.25
2019-03-25T14:24:26.768Z,66.92
2019-03-25T14:26:55.345Z,66.41
2019-03-25T14:29:25.556Z,66.80
2019-03-25T14:31:54.146Z,66.89
2019-03-25T14:36:50.465Z,66.70
2019-03-25T14:39:19.081Z,70.06
2019-03-25T14:41:47.647Z,72.13
2019-03-25T14:44:16.251Z,74.08
2019-03-25T14:46:44.896Z,75.78
2019-03-25T14:49:13.515Z,76.15
2019-03-25T14:51:42.180Z,76.98
2019-03-25T14:54:10.867Z,77.00
2019-03-25T14:56:39.437Z,78.16
2019-03-25T14:59:08.034Z,78.38
2019-03-25T15:01:36.622Z,78.98
2019-03-25T15:04:05.214Z,79.66
2019-03-25T15:06:34.230Z,80.41
2019-03-25T15:09:02.855Z,81.39
2019-03-25T15:11:31.477Z,81.62
2019-03-25T15:14:00.045Z,81.92
2019-03-25T15:16:28.644Z,82.90
2019-03-25T15:18:57.224Z,83.24
2019-03-25T15:21:26.485Z,83.46
2019-03-25T15:23:55.096Z,83.64
2019-03-25T15:26:23.731Z,83.55
2019-03-25T15:28:52.309Z,83.50
2019-03-25T15:31:21.954Z,83.58
2019-03-25T15:33:50.567Z,83.60
2019-03-25T15:36:19.145Z,83.39
2019-03-25T15:38:47.757Z,82.87
2019-03-25T15:41:16.339Z,82.42
2019-03-25T15:43:44.939Z,82.73
2019-03-25T15:46:13.529Z,82.67
2019-03-25T15:48:42.367Z,82.67
2019-03-25T15:51:11.009Z,82.69
2019-03-25T15:53:39.648Z,82.80
2019-03-25T15:56:08.301Z,83.09
2019-03-25T15:58:36.876Z,82.15
2019-03-25T16:01:05.484Z,81.93
2019-03-25T16:03:34.204Z,81.56
2019-03-25T16:06:02.861Z,81.06
2019-03-25T16:08:31.422Z,81.29
2019-03-25T16:11:00.031Z,81.10
2019-03-25T16:13:29.076Z,80.73
2019-03-25T16:15:57.742Z,80.76
2019-03-25T16:18:37.311Z,81.52
2019-03-25T16:21:06.597Z,81.56
2019-03-25T16:23:35.300Z,80.77
2019-03-25T16:26:04.001Z,81.07
2019-03-25T16:28:32.732Z,80.03
2019-03-25T16:31:01.335Z,79.70
2019-03-25T16:33:29.932Z,78.76
2019-03-25T16:35:58.606Z,78.78
2019-03-25T16:38:27.182Z,78.72
2019-03-25T16:40:55.750Z,78.89
2019-03-25T16:43:24.323Z,78.60
2019-03-25T16:45:52.909Z,78.35
2019-03-25T16:48:21.476Z,78.14
2019-03-25T16:50:50.045Z,77.91
2019-03-25T16:53:18.650Z,77.80
2019-03-25T16:55:47.222Z,77.71
2019-03-25T16:58:15.879Z,77.54
2019-03-25T17:00:44.636Z,77.63
2019-03-25T17:03:13.359Z,77.89
2019-03-25T17:05:42.540Z,77.83
2019-03-25T17:08:11.324Z,78.04
2019-03-25T17:10:39.943Z,77.92
2019-03-25T17:13:08.597Z,77.82
2019-03-25T17:15:37.168Z,77.30
2019-03-25T17:18:05.749Z,77.38
2019-03-25T17:20:34.311Z,77.67
2019-03-25T17:23:02.965Z,77.89
2019-03-25T17:25:31.521Z,78.64
2019-03-25T17:28:00.092Z,78.80
2019-03-25T17:30:28.665Z,78.91
2019-03-25T17:32:57.331Z,79.02
2019-03-25T17:35:26.734Z,79.38
2019-03-25T17:37:55.309Z,79.53
2019-03-25T17:40:24.046Z,79.78
2019-03-25T17:42:52.697Z,79.70
2019-03-25T17:45:21.577Z,79.96
2019-03-25T17:47:50.153Z,80.38
2019-03-25T17:50:18.852Z,80.42
2019-03-25T17:52:47.731Z,80.71
2019-03-25T17:55:16.484Z,80.99
2019-03-25T17:57:45.060Z,81.36
2019-03-25T18:00:14.136Z,81.43
2019-03-25T18:02:43.101Z,81.40
2019-03-25T18:05:12.059Z,81.52
2019-03-25T18:07:40.806Z,81.77
2019-03-25T18:10:09.879Z,81.87
2019-03-25T18:12:39.335Z,82.07
2019-03-25T18:15:11.774Z,82.16
2019-03-25T18:17:40.398Z,82.04
2019-03-25T18:20:18.187Z,81.89
2019-03-25T18:22:40.306Z,82.12
2019-03-25T18:25:09.189Z,82.01
2019-03-25T18:27:37.819Z,82.09
2019-03-25T18:30:09.706Z,82.08
2019-03-25T18:32:38.317Z,82.12
2019-03-25T18:35:07.021Z,82.24
2019-03-25T18:37:35.635Z,82.24
2019-03-25T18:40:04.754Z,82.44
2019-03-25T18:42:33.366Z,82.39
2019-03-25T18:45:02.071Z,82.35
2019-03-25T18:47:31.211Z,82.24
2019-03-25T18:49:59.872Z,82.19
2019-03-25T18:52:28.452Z,82.35
2019-03-25T18:54:57.021Z,82.42
2019-03-25T18:57:26.748Z,82.85
2019-03-25T18:59:55.639Z,82.72
2019-03-25T19:02:24.317Z,82.84
2019-03-25T19:04:52.943Z,82.74
2019-03-25T19:07:21.895Z,82.68
2019-03-25T19:09:53.785Z,82.63
2019-03-25T19:12:22.544Z,82.65
2019-03-25T19:14:51.209Z,82.63
2019-03-25T19:17:19.809Z,82.69
2019-03-25T19:19:48.390Z,82.51
2019-03-25T19:22:17.138Z,82.46
2019-03-25T19:24:45.699Z,82.45
2019-03-25T19:27:14.302Z,82.18
2019-03-25T19:29:42.976Z,82.11
2019-03-25T19:32:11.642Z,82.11
2019-03-25T19:34:40.225Z,82.15
2019-03-25T19:37:09.238Z,82.26
2019-03-25T19:39:37.842Z,82.54
2019-03-25T19:42:06.616Z,82.75
2019-03-25T19:44:35.355Z,83.08
2019-03-25T19:47:03.971Z,83.08
2019-03-25T19:49:32.641Z,83.23
2019-03-25T19:52:01.293Z,83.57
2019-03-25T19:54:29.895Z,83.72
2019-03-25T19:56:58.530Z,83.76
2019-03-25T19:59:27.162Z,83.88
2019-03-25T20:01:55.955Z,84.06
2019-03-25T20:04:24.564Z,83.08
2019-03-25T20:06:53.535Z,82.36
2019-03-25T20:09:22.219Z,81.77
2019-03-25T20:11:50.895Z,81.51
2019-03-25T20:14:19.547Z,81.18
2019-03-25T20:16:48.130Z,80.89
2019-03-25T20:19:17.075Z,80.65
2019-03-25T20:21:45.723Z,80.59
2019-03-25T20:24:14.377Z,80.74
2019-03-25T20:26:42.963Z,80.77
2019-03-25T20:29:11.588Z,80.72
2019-03-25T20:31:40.197Z,80.95
2019-03-25T20:34:11.142Z,81.20
2019-03-25T20:36:39.463Z,81.47
2019-03-25T20:39:09.978Z,81.57
2019-03-25T20:41:38.715Z,81.70
2019-03-25T20:44:07.383Z,81.95
2019-03-25T20:46:36.106Z,82.16
2019-03-25T20:49:04.719Z,82.39
2019-03-25T20:51:33.520Z,82.33
2019-03-25T20:54:02.046Z,82.44
2019-03-25T20:56:30.933Z,82.58
2019-03-25T20:58:59.546Z,82.72
2019-03-25T21:01:28.141Z,83.00
2019-03-25T21:03:57.193Z,83.10
2019-03-25T21:06:25.794Z,83.20
2019-03-25T21:08:54.417Z,83.25
2019-03-25T21:11:25.693Z,83.01
2019-03-25T21:13:54.319Z,82.68
2019-03-25T21:16:22.881Z,82.60
2019-03-25T21:18:52.426Z,82.08
2019-03-25T21:21:21.158Z,82.13
2019-03-25T21:23:49.782Z,81.93
2019-03-25T21:26:18.478Z,81.76
2019-03-25T21:28:47.182Z,81.58
2019-03-25T21:31:15.966Z,81.57
2019-03-25T21:33:44.516Z,81.30
2019-03-25T21:36:13.226Z,81.23
2019-03-25T21:38:42.080Z,81.23
2019-03-25T21:41:10.637Z,81.01
2019-03-25T21:43:39.347Z,80.99
2019-03-25T21:46:07.922Z,80.71
2019-03-25T21:48:36.452Z,80.53
2019-03-25T21:51:05.150Z,80.35
2019-03-25T21:53:33.808Z,80.27
2019-03-25T21:56:02.373Z,80.96
2019-03-25T21:58:31.137Z,80.96
2019-03-25T22:00:59.792Z,80.48
2019-03-25T22:03:28.364Z,80.11
2019-03-25T22:05:57.354Z,80.38
2019-03-25T22:08:26.126Z,80.51
2019-03-25T22:10:54.795Z,80.54
2019-03-25T22:13:23.379Z,80.67
2019-03-25T22:15:51.980Z,80.87
2019-03-25T22:18:20.592Z,80.87
2019-03-25T22:20:49.165Z,81.10
2019-03-25T22:23:17.748Z,81.09
2019-03-25T22:25:46.352Z,81.29
2019-03-25T22:28:14.926Z,81.32
2019-03-25T22:30:43.502Z,81.29
2019-03-25T22:33:24.887Z,81.36
2019-03-25T22:35:42.387Z,81.62
2019-03-25T22:38:10.968Z,81.67
2019-03-25T22:40:39.735Z,81.60
2019-03-25T22:43:08.306Z,81.68
2019-03-25T22:45:36.870Z,81.93
2019-03-25T22:48:07.299Z,81.72
2019-03-25T22:50:35.850Z,81.87
2019-03-25T22:53:04.824Z,81.93
2019-03-25T22:55:33.631Z,82.01
2019-03-25T22:58:02.214Z,81.95
2019-03-25T23:00:41.617Z,82.05
2019-03-25T23:03:10.243Z,82.09
2019-03-25T23:05:38.821Z,82.21
2019-03-25T23:08:07.382Z,82.20
2019-03-25T23:10:36.209Z,82.16
2019-03-25T23:13:04.788Z,82.28
2019-03-25T23:15:33.493Z,82.32
2019-03-25T23:18:02.124Z,82.32
2019-03-25T23:20:30.666Z,82.39
2019-03-25T23:22:59.241Z,82.23
2019-03-25T23:25:27.934Z,82.47
2019-03-25T23:27:56.510Z,82.36
2019-03-25T23:30:25.172Z,82.35
2019-03-25T23:32:53.787Z,82.57
2019-03-25T23:35:22.398Z,82.76
2019-03-25T23:37:50.968Z,82.92
2019-03-25T23:40:20.480Z,83.01
2019-03-25T23:42:49.054Z,83.12
2019-03-25T23:45:17.625Z,83.27
2019-03-25T23:47:46.204Z,83.49
2019-03-25T23:50:14.978Z,83.46
2019-03-25T23:52:43.559Z,83.44
2019-03-25T23:55:12.356Z,83.44
2019-03-25T23:57:40.937Z,83.34
